createdAt,value
2018-05-13T00:02:19.419Z,94848
2018-05-13T00:04:47.524Z,94844
2018-05-13T00:07:15.637Z,94850
2018-05-13T00:09:44.566Z,94841
2018-05-13T00:12:12.724Z,94842
2018-05-13T00:14:40.981Z,94832
2018-05-13T00:17:09.248Z,94838
2018-05-13T00:19:37.484Z,94839
2018-05-13T00:22:05.724Z,94836
2018-05-13T00:24:34.998Z,94826
2018-05-13T00:27:03.223Z,94825
2018-05-13T00:29:31.499Z,94829
2018-05-13T00:31:59.697Z,94822
2018-05-13T00:34:27.921Z,94819
2018-05-13T00:36:56.801Z,94813
2018-05-13T00:39:24.944Z,94809
2018-05-13T00:41:53.043Z,94809
2018-05-13T00:44:21.206Z,94811
2018-05-13T00:46:49.319Z,94822
2018-05-13T00:49:17.421Z,94815
2018-05-13T00:51:45.869Z,94813
2018-05-13T00:54:31.737Z,94808
2018-05-13T00:56:59.857Z,94800
2018-05-13T00:59:28.023Z,94795
2018-05-13T01:01:56.937Z,94792
2018-05-13T01:04:25.837Z,94795
2018-05-13T01:06:53.937Z,94791
2018-05-13T01:09:22.343Z,94795
2018-05-13T01:11:50.438Z,94798
2018-05-13T01:14:18.553Z,94804
2018-05-13T01:16:46.887Z,94784
2018-05-13T01:19:15.022Z,94788
2018-05-13T01:21:43.195Z,94782
2018-05-13T01:24:11.409Z,94787
2018-05-13T01:26:39.724Z,94786
2018-05-13T01:29:07.921Z,94776
2018-05-13T01:31:36.140Z,94782
2018-05-13T01:34:04.272Z,94769
2018-05-13T01:36:32.372Z,94768
2018-05-13T01:39:00.519Z,94770
2018-05-13T01:41:29.177Z,94774
2018-05-13T01:43:57.278Z,94768
2018-05-13T01:46:25.396Z,94769
2018-05-13T01:48:53.523Z,94770
2018-05-13T01:51:21.619Z,94765
2018-05-13T01:53:49.729Z,94766
2018-05-13T01:56:17.839Z,94770
2018-05-13T01:58:45.943Z,94764
2018-05-13T02:01:14.139Z,94760
2018-05-13T02:03:42.436Z,94763
2018-05-13T02:06:10.555Z,94761
2018-05-13T02:08:38.807Z,94759
2018-05-13T02:11:06.915Z,94760
2018-05-13T02:13:35.035Z,94751
2018-05-13T02:16:03.721Z,94748
2018-05-13T02:18:31.845Z,94750
2018-05-13T02:20:59.945Z,94756
2018-05-13T02:23:28.061Z,94753
2018-05-13T02:25:56.209Z,94758
2018-05-13T02:28:24.307Z,94744
2018-05-13T02:30:52.469Z,94751
2018-05-13T02:33:20.596Z,94745
2018-05-13T02:35:48.735Z,94750
2018-05-13T02:38:16.973Z,94746
2018-05-13T02:40:45.111Z,94744
2018-05-13T02:43:13.384Z,94751
2018-05-13T02:45:41.646Z,94747
2018-05-13T02:48:09.767Z,94748
2018-05-13T02:50:37.868Z,94747
2018-05-13T02:53:06.081Z,94750
2018-05-13T02:55:34.199Z,94740
2018-05-13T02:58:02.301Z,94741
2018-05-13T03:00:30.397Z,94733
2018-05-13T03:02:58.519Z,94741
2018-05-13T03:05:26.627Z,94750
2018-05-13T03:07:54.739Z,94757
2018-05-13T03:10:23.255Z,94748
2018-05-13T03:12:51.359Z,94743
2018-05-13T03:15:19.455Z,94746
2018-05-13T03:17:47.569Z,94751
2018-05-13T03:20:15.687Z,94751
2018-05-13T03:22:44.577Z,94752
2018-05-13T03:25:13.399Z,94749
2018-05-13T03:27:41.507Z,94755
2018-05-13T03:30:09.660Z,94757
2018-05-13T03:32:37.766Z,94762
2018-05-13T03:35:05.866Z,94760
2018-05-13T03:37:33.964Z,94767
2018-05-13T03:40:02.136Z,94761
2018-05-13T03:42:30.372Z,94760
2018-05-13T03:44:59.038Z,94764
2018-05-13T03:47:27.127Z,94756
2018-05-13T03:49:55.253Z,94750
2018-05-13T03:52:23.376Z,94750
2018-05-13T03:54:51.534Z,94751
2018-05-13T03:57:19.712Z,94749
2018-05-13T03:59:47.834Z,94750
2018-05-13T04:02:15.946Z,94760
2018-05-13T04:04:44.045Z,94761
2018-05-13T04:07:12.171Z,94765
2018-05-13T04:09:57.863Z,94777
2018-05-13T04:12:43.571Z,94780
2018-05-13T04:15:27.468Z,94777
2018-05-13T04:17:55.612Z,94780
2018-05-13T04:20:24.247Z,94786
2018-05-13T04:22:52.375Z,94783
2018-05-13T04:25:20.546Z,94780
2018-05-13T04:27:48.682Z,94780
2018-05-13T04:30:16.837Z,94785
2018-05-13T04:32:44.926Z,94787
2018-05-13T04:35:13.035Z,94791
2018-05-13T04:37:41.129Z,94779
2018-05-13T04:40:09.241Z,94779
2018-05-13T04:42:37.345Z,94783
2018-05-13T04:45:05.495Z,94790
2018-05-13T04:47:33.619Z,94793
2018-05-13T04:50:01.740Z,94786
2018-05-13T04:52:29.835Z,94797
2018-05-13T04:54:57.991Z,94791
2018-05-13T04:57:26.161Z,94792
2018-05-13T04:59:54.263Z,94800
2018-05-13T05:02:22.359Z,94800
2018-05-13T05:04:51.027Z,94790
2018-05-13T05:07:19.143Z,94802
2018-05-13T05:09:47.291Z,94799
2018-05-13T05:12:15.400Z,94791
2018-05-13T05:14:43.531Z,94797
2018-05-13T05:17:12.333Z,94792
2018-05-13T05:19:40.500Z,94805
2018-05-13T05:22:08.624Z,94798
2018-05-13T05:24:36.742Z,94803
2018-05-13T05:27:04.860Z,94799
2018-05-13T05:29:32.977Z,94796
2018-05-13T05:32:01.110Z,94792
2018-05-13T05:34:29.296Z,94794
2018-05-13T05:36:58.228Z,94788
2018-05-13T05:39:27.104Z,94780
2018-05-13T05:41:55.238Z,94792
2018-05-13T05:44:23.356Z,94791
2018-05-13T05:46:51.532Z,94799
2018-05-13T05:49:19.704Z,94792
2018-05-13T05:51:47.917Z,94799
2018-05-13T05:54:16.152Z,94795
2018-05-13T05:56:45.042Z,94791
2018-05-13T05:59:13.137Z,94781
2018-05-13T06:01:41.247Z,94785
2018-05-13T06:04:09.350Z,94787
2018-05-13T06:06:37.436Z,94786
2018-05-13T06:09:06.491Z,94791
2018-05-13T06:11:34.597Z,94781
2018-05-13T06:14:02.775Z,94788
2018-05-13T06:16:32.363Z,94778
2018-05-13T06:19:00.621Z,94789
2018-05-13T06:21:29.183Z,94785
2018-05-13T06:23:57.301Z,94785
2018-05-13T06:26:26.283Z,94790
2018-05-13T06:28:54.419Z,94783
2018-05-13T06:31:22.528Z,94783
2018-05-13T06:33:51.281Z,94788
2018-05-13T06:36:19.449Z,94790
2018-05-13T06:38:47.631Z,94778
2018-05-13T06:41:15.825Z,94787
2018-05-13T06:43:43.980Z,94783
2018-05-13T06:46:12.108Z,94776
2018-05-13T06:48:40.254Z,94775
2018-05-13T06:51:08.978Z,94778
2018-05-13T06:53:37.105Z,94777
2018-05-13T06:56:05.236Z,94781
2018-05-13T06:58:33.748Z,94779
2018-05-13T07:01:01.840Z,94770
2018-05-13T07:03:32.501Z,94764
2018-05-13T07:06:00.618Z,94770
2018-05-13T07:08:28.745Z,94764
2018-05-13T07:10:57.636Z,94767
2018-05-13T07:13:26.516Z,94762
2018-05-13T07:15:54.613Z,94762
2018-05-13T07:18:22.724Z,94761
2018-05-13T07:20:51.498Z,94769
2018-05-13T07:23:19.603Z,94770
2018-05-13T07:25:47.767Z,94768
2018-05-13T07:28:15.868Z,94769
2018-05-13T07:30:43.973Z,94762
2018-05-13T07:33:12.090Z,94762
2018-05-13T07:35:40.198Z,94759
2018-05-13T07:38:11.241Z,94756
2018-05-13T07:40:39.426Z,94747
2018-05-13T07:43:11.188Z,94748
2018-05-13T07:45:39.318Z,94744
2018-05-13T07:48:07.435Z,94738
2018-05-13T07:50:35.570Z,94745
2018-05-13T07:53:05.082Z,94747
2018-05-13T07:55:33.960Z,94752
2018-05-13T07:58:02.382Z,94747
2018-05-13T08:00:30.486Z,94744
2018-05-13T08:02:58.607Z,94741
2018-05-13T08:05:26.730Z,94742
2018-05-13T08:07:54.847Z,94743
2018-05-13T08:10:22.956Z,94739
2018-05-13T08:12:51.524Z,94746
2018-05-13T08:15:19.644Z,94745
2018-05-13T08:17:49.156Z,94735
2018-05-13T08:20:17.488Z,94742
2018-05-13T08:22:45.595Z,94736
2018-05-13T08:25:14.054Z,94741
2018-05-13T08:27:42.168Z,94726
2018-05-13T08:30:11.001Z,94733
2018-05-13T08:32:39.118Z,94737
2018-05-13T08:35:07.244Z,94728
2018-05-13T08:37:39.680Z,94726
2018-05-13T08:40:08.287Z,94729
2018-05-13T08:42:36.433Z,94724
2018-05-13T08:45:04.867Z,94722
2018-05-13T08:47:32.995Z,94718
2018-05-13T08:50:01.161Z,94708
2018-05-13T08:52:29.410Z,94704
2018-05-13T08:54:57.682Z,94708
2018-05-13T08:57:25.818Z,94705
2018-05-13T08:59:53.958Z,94702
2018-05-13T09:02:22.108Z,94701
2018-05-13T09:04:50.200Z,94698
2018-05-13T09:07:18.322Z,94697
2018-05-13T09:09:46.424Z,94693
2018-05-13T09:12:18.640Z,94700
2018-05-13T09:14:47.601Z,94693
2018-05-13T09:17:15.710Z,94696
2018-05-13T09:19:43.894Z,94692
2018-05-13T09:22:12.526Z,94678
2018-05-13T09:24:40.710Z,94685
2018-05-13T09:27:08.814Z,94680
2018-05-13T09:29:37.477Z,94684
2018-05-13T09:32:06.363Z,94677
2018-05-13T09:34:34.575Z,94676
2018-05-13T09:37:02.827Z,94679
2018-05-13T09:39:31.076Z,94670
2018-05-13T09:41:59.265Z,94668
2018-05-13T09:44:27.516Z,94668
2018-05-13T09:46:55.655Z,94665
2018-05-13T09:49:23.762Z,94663
2018-05-13T09:51:51.880Z,94656
2018-05-13T09:54:19.989Z,94658
2018-05-13T09:56:48.132Z,94647
2018-05-13T09:59:16.287Z,94654
2018-05-13T10:01:44.400Z,94655
2018-05-13T10:04:12.701Z,94653
2018-05-13T10:06:40.706Z,94652
2018-05-13T10:09:08.804Z,94650
2018-05-13T10:11:36.979Z,94645
2018-05-13T10:14:05.095Z,94647
2018-05-13T10:16:33.349Z,94645
2018-05-13T10:19:01.421Z,94652
2018-05-13T10:21:29.536Z,94645
2018-05-13T10:23:57.649Z,94649
2018-05-13T10:26:25.883Z,94647
2018-05-13T10:28:54.002Z,94642
2018-05-13T10:31:22.092Z,94638
2018-05-13T10:33:50.971Z,94633
2018-05-13T10:36:19.102Z,94642
2018-05-13T10:38:47.196Z,94635
2018-05-13T10:41:15.302Z,94640
2018-05-13T10:43:43.400Z,94636
2018-05-13T10:46:11.547Z,94625
2018-05-13T10:48:39.665Z,94620
2018-05-13T10:51:07.766Z,94621
2018-05-13T10:53:35.886Z,94618
2018-05-13T10:56:04.016Z,94615
2018-05-13T10:58:32.132Z,94618
2018-05-13T11:01:00.226Z,94617
2018-05-13T11:03:28.344Z,94608
2018-05-13T11:05:56.448Z,94617
2018-05-13T11:08:24.575Z,94618
2018-05-13T11:10:52.670Z,94607
2018-05-13T11:13:20.791Z,94608
2018-05-13T11:15:48.894Z,94599
2018-05-13T11:18:17.187Z,94597
2018-05-13T11:20:45.308Z,94597
2018-05-13T11:23:13.445Z,94597
2018-05-13T11:25:41.576Z,94594
2018-05-13T11:28:09.721Z,94579
2018-05-13T11:30:37.836Z,94581
2018-05-13T11:33:05.993Z,94576
2018-05-13T11:35:34.107Z,94568
2018-05-13T11:38:02.202Z,94567
2018-05-13T11:40:30.348Z,94568
2018-05-13T11:42:58.449Z,94558
2018-05-13T11:45:26.560Z,94555
2018-05-13T11:47:54.665Z,94547
2018-05-13T11:50:22.795Z,94548
2018-05-13T11:52:50.888Z,94539
2018-05-13T11:55:19.014Z,94542
2018-05-13T11:57:47.109Z,94532
2018-05-13T12:00:15.227Z,94532
2018-05-13T12:02:43.354Z,94528
2018-05-13T12:05:11.445Z,94529
2018-05-13T12:07:39.570Z,94526
2018-05-13T12:10:07.708Z,94519
2018-05-13T12:12:35.816Z,94517
2018-05-13T12:15:03.995Z,94518
2018-05-13T12:17:32.166Z,94512
2018-05-13T12:20:00.411Z,94509
2018-05-13T12:22:28.570Z,94508
2018-05-13T12:24:56.798Z,94498
2018-05-13T12:27:24.936Z,94496
2018-05-13T12:29:53.037Z,94499
2018-05-13T12:32:21.889Z,94496
2018-05-13T12:34:50.009Z,94491
2018-05-13T12:37:18.119Z,94488
2018-05-13T12:39:46.314Z,94482
2018-05-13T12:42:14.501Z,94488
2018-05-13T12:44:42.744Z,94472
2018-05-13T12:47:10.841Z,94473
2018-05-13T12:49:38.967Z,94469
2018-05-13T12:52:07.073Z,94468
2018-05-13T12:54:35.166Z,94466
2018-05-13T12:57:03.283Z,94460
2018-05-13T12:59:31.375Z,94456
2018-05-13T13:01:59.525Z,94452
2018-05-13T13:04:27.763Z,94438
2018-05-13T13:06:55.899Z,94435
2018-05-13T13:09:24.078Z,94439
2018-05-13T13:11:52.163Z,94433
2018-05-13T13:14:20.997Z,94423
2018-05-13T13:16:49.103Z,94419
2018-05-13T13:19:17.249Z,94414
2018-05-13T13:21:45.478Z,94401
2018-05-13T13:24:13.818Z,94406
2018-05-13T13:26:42.035Z,94403
2018-05-13T13:29:10.202Z,94405
2018-05-13T13:31:38.340Z,94399
2018-05-13T13:34:06.453Z,94399
2018-05-13T13:36:34.574Z,94387
2018-05-13T13:39:02.700Z,94385
2018-05-13T13:41:30.789Z,94376
2018-05-13T13:44:02.875Z,94381
2018-05-13T13:46:30.992Z,94367
2018-05-13T13:48:59.147Z,94366
2018-05-13T13:51:27.358Z,94363
2018-05-13T13:53:55.606Z,94364
2018-05-13T13:56:23.879Z,94363
2018-05-13T13:58:52.019Z,94365
2018-05-13T14:01:20.126Z,94369
2018-05-13T14:03:48.725Z,94363
2018-05-13T14:06:16.919Z,94362
2018-05-13T14:08:45.095Z,94359
2018-05-13T14:11:13.367Z,94357
2018-05-13T14:13:41.863Z,94356
2018-05-13T14:16:10.790Z,94345
2018-05-13T14:18:38.909Z,94345
2018-05-13T14:21:07.465Z,94338
2018-05-13T14:23:35.585Z,94329
2018-05-13T14:26:03.849Z,94334
2018-05-13T14:28:32.070Z,94334
2018-05-13T14:31:00.262Z,94340
2018-05-13T14:33:28.437Z,94340
2018-05-13T14:35:56.532Z,94339
2018-05-13T14:38:25.167Z,94345
2018-05-13T14:40:53.407Z,94334
2018-05-13T14:43:21.566Z,94333
2018-05-13T14:45:49.734Z,94332
2018-05-13T14:48:18.065Z,94333
2018-05-13T14:50:46.214Z,94330
2018-05-13T14:53:14.325Z,94338
2018-05-13T14:55:42.808Z,94332
2018-05-13T14:58:10.986Z,94344
2018-05-13T15:00:39.186Z,94337
2018-05-13T15:03:07.283Z,94347
2018-05-13T15:05:35.400Z,94335
2018-05-13T15:08:04.114Z,94338
2018-05-13T15:10:32.281Z,94333
2018-05-13T15:13:00.401Z,94335
2018-05-13T15:15:28.544Z,94337
2018-05-13T15:17:56.658Z,94354
2018-05-13T15:20:25.529Z,94375
2018-05-13T15:22:53.646Z,94394
2018-05-13T15:25:21.756Z,94393
2018-05-13T15:27:49.862Z,94379
2018-05-13T15:30:17.971Z,94372
2018-05-13T15:32:46.099Z,94365
2018-05-13T15:35:14.199Z,94375
2018-05-13T15:37:42.324Z,94358
2018-05-13T15:40:10.413Z,94374
2018-05-13T15:42:38.589Z,94386
2018-05-13T15:45:06.863Z,94395
2018-05-13T15:47:35.383Z,94404
2018-05-13T15:50:03.549Z,94371
2018-05-13T15:52:31.675Z,94361
2018-05-13T15:55:00.840Z,94363
2018-05-13T15:57:29.700Z,94329
2018-05-13T15:59:57.831Z,94322
2018-05-13T16:02:26.018Z,94322
2018-05-13T16:04:54.232Z,94313
2018-05-13T16:07:22.409Z,94322
2018-05-13T16:09:50.583Z,94328
2018-05-13T16:12:18.820Z,94320
2018-05-13T16:14:46.934Z,94324
2018-05-13T16:17:15.118Z,94304
2018-05-13T16:19:47.173Z,94300
2018-05-13T16:22:15.335Z,94289
2018-05-13T16:24:43.554Z,94283
2018-05-13T16:27:11.815Z,94271
2018-05-13T16:29:40.072Z,94257
2018-05-13T16:32:08.323Z,94257
2018-05-13T16:34:36.498Z,94250
2018-05-13T16:37:04.763Z,94264
2018-05-13T16:39:33.696Z,94241
2018-05-13T16:42:01.825Z,94233
2018-05-13T16:44:29.964Z,94245
2018-05-13T16:46:58.074Z,94235
2018-05-13T16:49:27.771Z,94242
2018-05-13T16:51:55.907Z,94248
2018-05-13T16:54:24.031Z,94262
2018-05-13T16:56:52.157Z,94294
2018-05-13T16:59:20.268Z,94286
2018-05-13T17:01:49.171Z,94283
2018-05-13T17:04:18.060Z,94283
2018-05-13T17:06:46.211Z,94276
2018-05-13T17:09:14.365Z,94277
2018-05-13T17:11:42.485Z,94279
2018-05-13T17:14:10.640Z,94282
2018-05-13T17:16:38.760Z,94282
2018-05-13T17:19:06.965Z,94275
2018-05-13T17:21:35.103Z,94278
2018-05-13T17:24:03.232Z,94281
2018-05-13T17:26:32.114Z,94278
2018-05-13T17:29:00.977Z,94276
2018-05-13T17:31:29.154Z,94275
2018-05-13T17:33:57.279Z,94277
2018-05-13T17:36:25.753Z,94283
2018-05-13T17:38:53.870Z,94279
2018-05-13T17:41:22.787Z,94285
2018-05-13T17:43:50.978Z,94292
2018-05-13T17:46:24.199Z,94311
2018-05-13T17:48:52.733Z,94359
2018-05-13T17:51:20.871Z,94356
2018-05-13T17:53:49.019Z,94366
2018-05-13T17:56:17.139Z,94361
2018-05-13T17:58:45.265Z,94379
2018-05-13T18:01:13.388Z,94381
2018-05-13T18:03:41.493Z,94382
2018-05-13T18:06:09.631Z,94395
2018-05-13T18:08:37.779Z,94384
2018-05-13T18:11:06.171Z,94394
2018-05-13T18:13:34.345Z,94389
2018-05-13T18:16:02.525Z,94387
2018-05-13T18:18:30.756Z,94387
2018-05-13T18:20:58.892Z,94393
2018-05-13T18:23:27.074Z,94393
2018-05-13T18:25:55.266Z,94382
2018-05-13T18:28:23.497Z,94390
2018-05-13T18:30:51.654Z,94386
2018-05-13T18:33:19.898Z,94378
2018-05-13T18:35:48.093Z,94384
2018-05-13T18:38:16.238Z,94363
2018-05-13T18:40:44.340Z,94363
2018-05-13T18:43:12.460Z,94367
2018-05-13T18:45:40.604Z,94363
2018-05-13T18:48:08.761Z,94362
2018-05-13T18:50:36.888Z,94363
2018-05-13T18:53:04.994Z,94359
2018-05-13T18:55:33.124Z,94371
2018-05-13T18:58:01.853Z,94371
2018-05-13T19:00:29.981Z,94367
2018-05-13T19:02:58.155Z,94356
2018-05-13T19:05:26.317Z,94355
2018-05-13T19:07:58.642Z,94352
2018-05-13T19:10:26.766Z,94360
2018-05-13T19:12:55.712Z,94373
2018-05-13T19:15:24.307Z,94371
2018-05-13T19:17:52.808Z,94371
2018-05-13T19:20:20.907Z,94371
2018-05-13T19:22:49.797Z,94381
2018-05-13T19:25:17.917Z,94383
2018-05-13T19:40:41.712Z,94384
2018-05-13T19:43:09.847Z,94385
2018-05-13T19:45:37.967Z,94399
2018-05-13T19:48:06.076Z,94407
2018-05-13T19:50:34.222Z,94412
2018-05-13T19:53:02.333Z,94412
2018-05-13T19:55:30.471Z,94422
2018-05-13T19:57:58.573Z,94421
2018-05-13T20:00:27.377Z,94420
2018-05-13T20:02:55.531Z,94428
2018-05-13T20:05:24.400Z,94433
2018-05-13T20:07:52.626Z,94433
2018-05-13T20:10:20.873Z,94423
2018-05-13T20:12:49.126Z,94429
2018-05-13T20:15:17.395Z,94429
2018-05-13T20:17:45.584Z,94427
2018-05-13T20:20:14.463Z,94428
2018-05-13T20:25:52.802Z,94444
2018-05-13T20:28:21.692Z,94436
2018-05-13T20:30:50.636Z,94422
2018-05-13T20:33:18.786Z,94427
2018-05-13T20:35:47.031Z,94437
2018-05-13T20:38:15.568Z,94432
2018-05-13T20:40:43.723Z,94444
2018-05-13T20:43:11.841Z,94434
2018-05-13T20:45:41.473Z,94438
2018-05-13T20:48:09.581Z,94440
2018-05-13T20:50:37.713Z,94447
2018-05-13T20:53:05.887Z,94442
2018-05-13T20:55:34.911Z,94441
2018-05-13T20:58:10.796Z,94447
2018-05-13T21:00:39.072Z,94452
2018-05-13T21:03:07.224Z,94455
2018-05-13T21:05:35.393Z,94450
2018-05-13T21:08:03.528Z,94449
2018-05-13T21:10:32.528Z,94446
2018-05-13T21:13:00.710Z,94437
2018-05-13T21:15:31.995Z,94448
2018-05-13T21:18:00.154Z,94453
2018-05-13T21:20:28.287Z,94445
2018-05-13T21:22:56.420Z,94451
2018-05-13T21:25:24.698Z,94454
2018-05-13T21:27:56.776Z,94450
2018-05-13T21:30:24.912Z,94448
2018-05-13T21:32:53.058Z,94453
2018-05-13T21:35:21.236Z,94465
2018-05-13T21:37:49.357Z,94458
2018-05-13T21:40:17.486Z,94462
2018-05-13T21:42:45.602Z,94470
2018-05-13T21:45:14.020Z,94465
2018-05-13T21:47:42.134Z,94468
2018-05-13T21:50:10.287Z,94457
2018-05-13T21:52:39.200Z,94461
2018-05-13T21:55:07.348Z,94470
2018-05-13T21:57:36.029Z,94469
2018-05-13T22:00:04.184Z,94467
2018-05-13T22:02:32.475Z,94467
2018-05-13T22:05:00.651Z,94470
2018-05-13T22:07:28.823Z,94462
2018-05-13T22:09:56.926Z,94460
2018-05-13T22:12:25.077Z,94458
2018-05-13T22:14:53.198Z,94452
2018-05-13T22:17:21.356Z,94442
2018-05-13T22:19:50.242Z,94449
2018-05-13T22:22:18.660Z,94468
2018-05-13T22:24:46.805Z,94468
2018-05-13T22:27:14.942Z,94468
2018-05-13T22:29:43.142Z,94458
2018-05-13T22:32:11.286Z,94462
2018-05-13T22:34:39.427Z,94459
2018-05-13T22:37:08.641Z,94465
2018-05-13T22:39:36.725Z,94466
2018-05-13T22:42:04.843Z,94455
2018-05-13T22:44:32.967Z,94457
2018-05-13T22:47:01.074Z,94455
2018-05-13T22:49:29.275Z,94454
2018-05-13T22:51:57.430Z,94449
2018-05-13T22:54:27.082Z,94447
2018-05-13T22:56:55.216Z,94450
2018-05-13T22:59:23.340Z,94449
2018-05-13T23:01:52.332Z,94446
2018-05-13T23:04:20.775Z,94454
2018-05-13T23:06:53.074Z,94452
2018-05-13T23:09:21.241Z,94452
2018-05-13T23:11:49.368Z,94443
2018-05-13T23:14:17.830Z,94446
2018-05-13T23:16:45.934Z,94449
2018-05-13T23:19:14.840Z,94447
2018-05-13T23:21:43.793Z,94441
2018-05-13T23:24:11.935Z,94436
2018-05-13T23:26:44.690Z,94420
2018-05-13T23:29:12.855Z,94415
2018-05-13T23:31:41.037Z,94410
2018-05-13T23:34:09.283Z,94405
2018-05-13T23:36:37.537Z,94407
2018-05-13T23:39:06.484Z,94404
2018-05-13T23:41:34.592Z,94405
2018-05-13T23:44:02.721Z,94414
2018-05-13T23:46:34.909Z,94420
2018-05-13T23:49:03.051Z,94428
2018-05-13T23:51:31.263Z,94423
2018-05-13T23:53:59.328Z,94423
2018-05-13T23:56:27.475Z,94422
2018-05-13T23:58:55.648Z,94420
